sensor_id;sensor_type;location;lat;lon;timestamp;P1;durP1;ratioP1;P2;durP2;ratioP2
56075;SDS011;41951;49.022;12.066;2023-04-06T00:00:59;5.72;;;3.30;;
56075;SDS011;41951;49.022;12.066;2023-04-06T00:03:25;9.50;;;4.00;;
56075;SDS011;41951;49.022;12.066;2023-04-06T00:05:50;8.82;;;3.97;;
56075;SDS011;41951;49.022;12.066;2023-04-06T00:08:17;12.15;;;3.72;;
56075;SDS011;41951;49.022;12.066;2023-04-06T00:10:42;6.68;;;3.50;;
56075;SDS011;41951;49.022;12.066;2023-04-06T00:13:08;9.70;;;4.00;;
56075;SDS011;41951;49.022;12.066;2023-04-06T00:15:33;7.70;;;4.32;;
56075;SDS011;41951;49.022;12.066;2023-04-06T00:17:59;7.82;;;3.78;;
56075;SDS011;41951;49.022;12.066;2023-04-06T00:20:25;9.02;;;4.40;;
56075;SDS011;41951;49.022;12.066;2023-04-06T00:22:51;8.43;;;3.95;;
56075;SDS011;41951;49.022;12.066;2023-04-06T00:25:16;9.15;;;4.63;;
56075;SDS011;41951;49.022;12.066;2023-04-06T00:27:42;6.82;;;3.95;;
56075;SDS011;41951;49.022;12.066;2023-04-06T00:30:07;7.18;;;3.67;;
56075;SDS011;41951;49.022;12.066;2023-04-06T00:32:34;7.82;;;4.13;;
56075;SDS011;41951;49.022;12.066;2023-04-06T00:35:01;6.72;;;3.88;;
56075;SDS011;41951;49.022;12.066;2023-04-06T00:37:27;6.25;;;3.63;;
56075;SDS011;41951;49.022;12.066;2023-04-06T00:39:53;9.75;;;4.55;;
56075;SDS011;41951;49.022;12.066;2023-04-06T00:42:18;7.63;;;4.10;;
56075;SDS011;41951;49.022;12.066;2023-04-06T00:44:53;9.75;;;3.63;;
56075;SDS011;41951;49.022;12.066;2023-04-06T00:47:21;6.70;;;4.05;;
56075;SDS011;41951;49.022;12.066;2023-04-06T00:49:47;8.00;;;4.30;;
56075;SDS011;41951;49.022;12.066;2023-04-06T00:52:13;8.27;;;4.28;;
56075;SDS011;41951;49.022;12.066;2023-04-06T00:54:39;9.35;;;4.00;;
56075;SDS011;41951;49.022;12.066;2023-04-06T00:57:05;10.98;;;4.68;;
56075;SDS011;41951;49.022;12.066;2023-04-06T00:59:30;7.75;;;3.88;;
56075;SDS011;41951;49.022;12.066;2023-04-06T01:01:57;7.35;;;3.90;;
56075;SDS011;41951;49.022;12.066;2023-04-06T01:04:22;7.25;;;3.75;;
56075;SDS011;41951;49.022;12.066;2023-04-06T01:06:49;7.25;;;4.20;;
56075;SDS011;41951;49.022;12.066;2023-04-06T01:09:15;6.97;;;4.00;;
56075;SDS011;41951;49.022;12.066;2023-04-06T01:11:41;7.80;;;4.13;;
56075;SDS011;41951;49.022;12.066;2023-04-06T01:14:07;8.13;;;3.78;;
56075;SDS011;41951;49.022;12.066;2023-04-06T01:16:33;10.30;;;3.92;;
56075;SDS011;41951;49.022;12.066;2023-04-06T01:18:59;6.38;;;3.60;;
56075;SDS011;41951;49.022;12.066;2023-04-06T01:21:25;6.35;;;3.92;;
56075;SDS011;41951;49.022;12.066;2023-04-06T01:23:51;8.50;;;5.10;;
56075;SDS011;41951;49.022;12.066;2023-04-06T01:26:17;8.20;;;3.97;;
56075;SDS011;41951;49.022;12.066;2023-04-06T01:28:42;7.10;;;3.88;;
56075;SDS011;41951;49.022;12.066;2023-04-06T01:31:09;7.72;;;3.55;;
56075;SDS011;41951;49.022;12.066;2023-04-06T01:33:35;7.75;;;4.10;;
56075;SDS011;41951;49.022;12.066;2023-04-06T01:36:01;6.57;;;3.42;;
56075;SDS011;41951;49.022;12.066;2023-04-06T01:38:27;7.60;;;3.95;;
56075;SDS011;41951;49.022;12.066;2023-04-06T01:40:53;6.25;;;3.60;;
56075;SDS011;41951;49.022;12.066;2023-04-06T01:43:19;7.80;;;3.83;;
56075;SDS011;41951;49.022;12.066;2023-04-06T01:45:44;7.65;;;3.75;;
56075;SDS011;41951;49.022;12.066;2023-04-06T01:48:10;6.63;;;3.03;;
56075;SDS011;41951;49.022;12.066;2023-04-06T01:50:35;6.95;;;3.85;;
56075;SDS011;41951;49.022;12.066;2023-04-06T01:53:01;6.90;;;3.55;;
56075;SDS011;41951;49.022;12.066;2023-04-06T01:55:26;10.02;;;4.32;;
56075;SDS011;41951;49.022;12.066;2023-04-06T01:57:52;8.93;;;3.95;;
56075;SDS011;41951;49.022;12.066;2023-04-06T02:00:17;9.85;;;4.22;;
56075;SDS011;41951;49.022;12.066;2023-04-06T02:02:43;9.50;;;3.85;;
56075;SDS011;41951;49.022;12.066;2023-04-06T02:05:09;6.30;;;4.00;;
56075;SDS011;41951;49.022;12.066;2023-04-06T02:07:34;8.65;;;4.38;;
56075;SDS011;41951;49.022;12.066;2023-04-06T02:10:00;8.20;;;4.28;;
56075;SDS011;41951;49.022;12.066;2023-04-06T02:12:25;8.30;;;4.60;;
56075;SDS011;41951;49.022;12.066;2023-04-06T02:14:51;8.13;;;4.95;;
56075;SDS011;41951;49.022;12.066;2023-04-06T02:17:17;8.30;;;4.10;;
56075;SDS011;41951;49.022;12.066;2023-04-06T02:19:42;7.15;;;4.30;;
56075;SDS011;41951;49.022;12.066;2023-04-06T02:22:09;6.15;;;3.80;;
56075;SDS011;41951;49.022;12.066;2023-04-06T02:24:34;8.65;;;4.00;;
56075;SDS011;41951;49.022;12.066;2023-04-06T02:27:00;6.82;;;4.00;;
56075;SDS011;41951;49.022;12.066;2023-04-06T02:29:26;11.32;;;4.60;;
56075;SDS011;41951;49.022;12.066;2023-04-06T02:31:51;8.68;;;3.97;;
56075;SDS011;41951;49.022;12.066;2023-04-06T02:34:17;6.22;;;3.75;;
56075;SDS011;41951;49.022;12.066;2023-04-06T02:36:43;6.18;;;3.92;;
56075;SDS011;41951;49.022;12.066;2023-04-06T02:39:10;7.43;;;4.00;;
56075;SDS011;41951;49.022;12.066;2023-04-06T02:41:35;7.97;;;4.18;;
56075;SDS011;41951;49.022;12.066;2023-04-06T02:44:01;10.18;;;3.97;;
56075;SDS011;41951;49.022;12.066;2023-04-06T02:46:27;7.65;;;4.47;;
56075;SDS011;41951;49.022;12.066;2023-04-06T02:48:53;9.77;;;4.45;;
56075;SDS011;41951;49.022;12.066;2023-04-06T02:51:18;6.78;;;3.65;;
56075;SDS011;41951;49.022;12.066;2023-04-06T02:53:44;8.38;;;4.68;;
56075;SDS011;41951;49.022;12.066;2023-04-06T02:56:09;9.48;;;4.30;;
56075;SDS011;41951;49.022;12.066;2023-04-06T02:58:35;9.13;;;4.10;;
56075;SDS011;41951;49.022;12.066;2023-04-06T03:01:01;7.30;;;3.92;;
56075;SDS011;41951;49.022;12.066;2023-04-06T03:03:28;7.68;;;4.60;;
56075;SDS011;41951;49.022;12.066;2023-04-06T03:05:53;8.77;;;4.30;;
56075;SDS011;41951;49.022;12.066;2023-04-06T03:08:19;8.25;;;3.90;;
56075;SDS011;41951;49.022;12.066;2023-04-06T03:10:45;8.40;;;4.53;;
56075;SDS011;41951;49.022;12.066;2023-04-06T03:13:11;6.45;;;4.38;;
56075;SDS011;41951;49.022;12.066;2023-04-06T03:15:36;9.35;;;4.45;;
56075;SDS011;41951;49.022;12.066;2023-04-06T03:18:02;6.95;;;3.67;;
56075;SDS011;41951;49.022;12.066;2023-04-06T03:20:27;5.80;;;3.97;;
56075;SDS011;41951;49.022;12.066;2023-04-06T03:22:53;6.97;;;4.22;;
56075;SDS011;41951;49.022;12.066;2023-04-06T03:25:18;6.88;;;3.83;;
56075;SDS011;41951;49.022;12.066;2023-04-06T03:27:44;10.25;;;4.55;;
56075;SDS011;41951;49.022;12.066;2023-04-06T03:30:09;6.70;;;3.72;;
56075;SDS011;41951;49.022;12.066;2023-04-06T03:32:35;8.73;;;5.13;;
56075;SDS011;41951;49.022;12.066;2023-04-06T03:35:01;7.78;;;4.20;;
56075;SDS011;41951;49.022;12.066;2023-04-06T03:37:26;9.43;;;4.47;;
56075;SDS011;41951;49.022;12.066;2023-04-06T03:39:52;10.57;;;4.03;;
56075;SDS011;41951;49.022;12.066;2023-04-06T03:42:18;7.65;;;4.40;;
56075;SDS011;41951;49.022;12.066;2023-04-06T03:44:43;8.10;;;4.13;;
56075;SDS011;41951;49.022;12.066;2023-04-06T03:47:09;9.43;;;4.65;;
56075;SDS011;41951;49.022;12.066;2023-04-06T03:49:34;7.43;;;4.30;;
56075;SDS011;41951;49.022;12.066;2023-04-06T03:52:00;6.38;;;4.18;;
56075;SDS011;41951;49.022;12.066;2023-04-06T03:54:26;7.82;;;4.22;;
56075;SDS011;41951;49.022;12.066;2023-04-06T03:56:51;7.32;;;3.88;;
56075;SDS011;41951;49.022;12.066;2023-04-06T03:59:17;7.10;;;4.10;;
56075;SDS011;41951;49.022;12.066;2023-04-06T04:01:42;7.28;;;3.80;;
56075;SDS011;41951;49.022;12.066;2023-04-06T04:04:08;7.57;;;4.05;;
56075;SDS011;41951;49.022;12.066;2023-04-06T04:06:35;7.88;;;3.80;;
56075;SDS011;41951;49.022;12.066;2023-04-06T04:09:01;7.88;;;4.32;;
56075;SDS011;41951;49.022;12.066;2023-04-06T04:11:27;7.63;;;4.35;;
56075;SDS011;41951;49.022;12.066;2023-04-06T04:13:53;7.18;;;4.40;;
56075;SDS011;41951;49.022;12.066;2023-04-06T04:16:18;6.30;;;3.75;;
56075;SDS011;41951;49.022;12.066;2023-04-06T04:18:44;8.65;;;4.60;;
56075;SDS011;41951;49.022;12.066;2023-04-06T04:21:12;11.60;;;5.32;;
56075;SDS011;41951;49.022;12.066;2023-04-06T04:23:37;10.13;;;4.55;;
56075;SDS011;41951;49.022;12.066;2023-04-06T04:26:03;10.43;;;4.57;;
56075;SDS011;41951;49.022;12.066;2023-04-06T04:28:29;11.68;;;4.65;;
56075;SDS011;41951;49.022;12.066;2023-04-06T04:30:54;9.18;;;4.93;;
56075;SDS011;41951;49.022;12.066;2023-04-06T04:33:20;8.60;;;4.57;;
56075;SDS011;41951;49.022;12.066;2023-04-06T04:35:46;11.93;;;5.20;;
56075;SDS011;41951;49.022;12.066;2023-04-06T04:40:40;9.90;;;4.70;;
56075;SDS011;41951;49.022;12.066;2023-04-06T04:43:06;7.80;;;4.63;;
56075;SDS011;41951;49.022;12.066;2023-04-06T04:45:31;7.50;;;4.32;;
56075;SDS011;41951;49.022;12.066;2023-04-06T04:47:57;9.32;;;5.15;;
56075;SDS011;41951;49.022;12.066;2023-04-06T04:50:23;7.57;;;4.32;;
56075;SDS011;41951;49.022;12.066;2023-04-06T04:52:48;7.85;;;4.47;;
56075;SDS011;41951;49.022;12.066;2023-04-06T04:55:14;8.82;;;4.50;;
56075;SDS011;41951;49.022;12.066;2023-04-06T04:57:40;6.72;;;4.20;;
56075;SDS011;41951;49.022;12.066;2023-04-06T05:00:05;9.77;;;4.40;;
56075;SDS011;41951;49.022;12.066;2023-04-06T05:02:31;9.23;;;4.00;;
56075;SDS011;41951;49.022;12.066;2023-04-06T05:04:57;10.27;;;4.70;;
56075;SDS011;41951;49.022;12.066;2023-04-06T05:07:23;9.27;;;5.22;;
56075;SDS011;41951;49.022;12.066;2023-04-06T05:09:49;8.57;;;5.05;;
56075;SDS011;41951;49.022;12.066;2023-04-06T05:12:14;9.45;;;4.28;;
56075;SDS011;41951;49.022;12.066;2023-04-06T05:14:40;9.95;;;4.78;;
56075;SDS011;41951;49.022;12.066;2023-04-06T05:17:06;9.25;;;4.95;;
56075;SDS011;41951;49.022;12.066;2023-04-06T05:19:32;10.35;;;5.32;;
56075;SDS011;41951;49.022;12.066;2023-04-06T05:21:57;9.68;;;5.18;;
56075;SDS011;41951;49.022;12.066;2023-04-06T05:24:23;9.93;;;5.32;;
56075;SDS011;41951;49.022;12.066;2023-04-06T05:26:49;8.07;;;4.95;;
56075;SDS011;41951;49.022;12.066;2023-04-06T05:29:14;12.23;;;5.90;;
56075;SDS011;41951;49.022;12.066;2023-04-06T05:31:41;12.63;;;5.88;;
56075;SDS011;41951;49.022;12.066;2023-04-06T05:34:07;9.00;;;5.20;;
56075;SDS011;41951;49.022;12.066;2023-04-06T05:36:34;11.77;;;5.75;;
56075;SDS011;41951;49.022;12.066;2023-04-06T05:38:59;14.85;;;6.35;;
56075;SDS011;41951;49.022;12.066;2023-04-06T05:41:25;12.05;;;6.18;;
56075;SDS011;41951;49.022;12.066;2023-04-06T05:43:51;12.20;;;5.90;;
56075;SDS011;41951;49.022;12.066;2023-04-06T05:46:17;12.55;;;5.88;;
56075;SDS011;41951;49.022;12.066;2023-04-06T05:48:43;12.20;;;6.20;;
56075;SDS011;41951;49.022;12.066;2023-04-06T05:51:08;12.57;;;6.85;;
56075;SDS011;41951;49.022;12.066;2023-04-06T05:53:34;11.85;;;6.18;;
56075;SDS011;41951;49.022;12.066;2023-04-06T05:56:03;10.27;;;6.00;;
56075;SDS011;41951;49.022;12.066;2023-04-06T05:58:29;9.88;;;5.95;;
56075;SDS011;41951;49.022;12.066;2023-04-06T06:00:58;15.52;;;7.35;;
56075;SDS011;41951;49.022;12.066;2023-04-06T06:03:24;10.45;;;6.75;;
56075;SDS011;41951;49.022;12.066;2023-04-06T06:05:50;13.05;;;6.05;;
56075;SDS011;41951;49.022;12.066;2023-04-06T06:08:16;13.15;;;6.63;;
56075;SDS011;41951;49.022;12.066;2023-04-06T06:10:42;11.43;;;5.47;;
56075;SDS011;41951;49.022;12.066;2023-04-06T06:13:08;12.55;;;6.93;;
56075;SDS011;41951;49.022;12.066;2023-04-06T06:15:33;11.77;;;6.60;;
56075;SDS011;41951;49.022;12.066;2023-04-06T06:17:59;11.93;;;6.63;;
56075;SDS011;41951;49.022;12.066;2023-04-06T06:20:25;11.38;;;6.35;;
56075;SDS011;41951;49.022;12.066;2023-04-06T06:22:51;16.00;;;6.45;;
56075;SDS011;41951;49.022;12.066;2023-04-06T06:25:17;10.23;;;5.93;;
56075;SDS011;41951;49.022;12.066;2023-04-06T06:27:43;9.20;;;5.70;;
56075;SDS011;41951;49.022;12.066;2023-04-06T06:30:09;12.98;;;5.53;;
56075;SDS011;41951;49.022;12.066;2023-04-06T06:32:35;16.27;;;6.22;;
56075;SDS011;41951;49.022;12.066;2023-04-06T06:35:00;12.75;;;6.70;;
56075;SDS011;41951;49.022;12.066;2023-04-06T06:37:26;11.20;;;6.03;;
56075;SDS011;41951;49.022;12.066;2023-04-06T06:39:52;9.98;;;6.10;;
56075;SDS011;41951;49.022;12.066;2023-04-06T06:42:17;17.92;;;5.93;;
56075;SDS011;41951;49.022;12.066;2023-04-06T06:44:43;12.05;;;5.72;;
56075;SDS011;41951;49.022;12.066;2023-04-06T06:47:08;12.25;;;6.28;;
56075;SDS011;41951;49.022;12.066;2023-04-06T06:49:34;14.65;;;6.32;;
56075;SDS011;41951;49.022;12.066;2023-04-06T06:52:00;12.25;;;6.47;;
56075;SDS011;41951;49.022;12.066;2023-04-06T06:54:25;12.30;;;6.63;;
56075;SDS011;41951;49.022;12.066;2023-04-06T06:56:51;11.50;;;5.57;;
56075;SDS011;41951;49.022;12.066;2023-04-06T06:59:17;15.02;;;5.85;;
56075;SDS011;41951;49.022;12.066;2023-04-06T07:01:42;10.63;;;5.90;;
56075;SDS011;41951;49.022;12.066;2023-04-06T07:04:08;12.90;;;6.05;;
56075;SDS011;41951;49.022;12.066;2023-04-06T07:06:37;13.90;;;5.70;;
56075;SDS011;41951;49.022;12.066;2023-04-06T07:09:02;11.25;;;5.57;;
56075;SDS011;41951;49.022;12.066;2023-04-06T07:11:28;13.40;;;6.18;;
56075;SDS011;41951;49.022;12.066;2023-04-06T07:13:54;13.27;;;5.78;;
56075;SDS011;41951;49.022;12.066;2023-04-06T07:16:20;11.07;;;5.70;;
56075;SDS011;41951;49.022;12.066;2023-04-06T07:18:45;20.13;;;6.05;;
56075;SDS011;41951;49.022;12.066;2023-04-06T07:21:11;10.57;;;5.25;;
56075;SDS011;41951;49.022;12.066;2023-04-06T07:23:37;12.25;;;5.57;;
56075;SDS011;41951;49.022;12.066;2023-04-06T07:26:02;9.25;;;4.95;;
56075;SDS011;41951;49.022;12.066;2023-04-06T07:28:28;12.02;;;5.20;;
56075;SDS011;41951;49.022;12.066;2023-04-06T07:30:53;11.57;;;5.15;;
56075;SDS011;41951;49.022;12.066;2023-04-06T07:33:19;8.23;;;4.22;;
56075;SDS011;41951;49.022;12.066;2023-04-06T07:35:45;11.07;;;4.50;;
56075;SDS011;41951;49.022;12.066;2023-04-06T07:38:11;13.82;;;5.32;;
56075;SDS011;41951;49.022;12.066;2023-04-06T07:40:36;8.25;;;4.65;;
56075;SDS011;41951;49.022;12.066;2023-04-06T07:43:02;7.60;;;4.40;;
56075;SDS011;41951;49.022;12.066;2023-04-06T07:45:28;8.95;;;4.50;;
56075;SDS011;41951;49.022;12.066;2023-04-06T07:47:54;10.90;;;4.55;;
56075;SDS011;41951;49.022;12.066;2023-04-06T07:50:19;9.75;;;4.43;;
56075;SDS011;41951;49.022;12.066;2023-04-06T07:52:45;8.27;;;4.00;;
56075;SDS011;41951;49.022;12.066;2023-04-06T07:55:11;11.15;;;5.47;;
56075;SDS011;41951;49.022;12.066;2023-04-06T07:57:36;8.68;;;4.07;;
56075;SDS011;41951;49.022;12.066;2023-04-06T08:00:02;10.43;;;4.70;;
56075;SDS011;41951;49.022;12.066;2023-04-06T08:02:29;9.00;;;4.35;;
56075;SDS011;41951;49.022;12.066;2023-04-06T08:04:56;10.00;;;4.65;;
56075;SDS011;41951;49.022;12.066;2023-04-06T08:07:22;7.88;;;4.30;;
56075;SDS011;41951;49.022;12.066;2023-04-06T08:09:47;11.43;;;4.75;;
56075;SDS011;41951;49.022;12.066;2023-04-06T08:12:13;8.50;;;5.18;;
56075;SDS011;41951;49.022;12.066;2023-04-06T08:14:39;8.65;;;4.63;;
56075;SDS011;41951;49.022;12.066;2023-04-06T08:17:04;10.75;;;5.30;;
56075;SDS011;41951;49.022;12.066;2023-04-06T08:19:30;11.32;;;5.15;;
56075;SDS011;41951;49.022;12.066;2023-04-06T08:21:55;12.93;;;5.05;;
56075;SDS011;41951;49.022;12.066;2023-04-06T08:24:21;8.15;;;4.90;;
56075;SDS011;41951;49.022;12.066;2023-04-06T08:26:46;8.23;;;4.88;;
56075;SDS011;41951;49.022;12.066;2023-04-06T08:29:12;9.68;;;4.75;;
56075;SDS011;41951;49.022;12.066;2023-04-06T08:31:38;11.30;;;5.60;;
56075;SDS011;41951;49.022;12.066;2023-04-06T08:34:03;9.20;;;4.35;;
56075;SDS011;41951;49.022;12.066;2023-04-06T08:36:30;13.10;;;5.82;;
56075;SDS011;41951;49.022;12.066;2023-04-06T08:38:56;9.27;;;4.80;;
56075;SDS011;41951;49.022;12.066;2023-04-06T08:41:24;8.65;;;4.57;;
56075;SDS011;41951;49.022;12.066;2023-04-06T08:43:58;10.10;;;5.40;;
56075;SDS011;41951;49.022;12.066;2023-04-06T08:46:25;9.32;;;5.53;;
56075;SDS011;41951;49.022;12.066;2023-04-06T08:48:54;10.75;;;5.43;;
56075;SDS011;41951;49.022;12.066;2023-04-06T08:51:22;10.05;;;6.32;;
56075;SDS011;41951;49.022;12.066;2023-04-06T08:53:49;11.52;;;5.57;;
56075;SDS011;41951;49.022;12.066;2023-04-06T08:56:15;10.15;;;5.78;;
56075;SDS011;41951;49.022;12.066;2023-04-06T08:58:41;8.90;;;4.75;;
56075;SDS011;41951;49.022;12.066;2023-04-06T09:01:07;11.07;;;4.70;;
56075;SDS011;41951;49.022;12.066;2023-04-06T09:03:37;10.13;;;5.13;;
56075;SDS011;41951;49.022;12.066;2023-04-06T09:06:07;7.85;;;5.05;;
56075;SDS011;41951;49.022;12.066;2023-04-06T09:08:34;11.23;;;4.90;;
56075;SDS011;41951;49.022;12.066;2023-04-06T09:11:00;13.25;;;4.88;;
56075;SDS011;41951;49.022;12.066;2023-04-06T09:13:27;7.60;;;4.53;;
56075;SDS011;41951;49.022;12.066;2023-04-06T09:15:59;11.38;;;4.93;;
56075;SDS011;41951;49.022;12.066;2023-04-06T09:18:30;7.90;;;4.53;;
56075;SDS011;41951;49.022;12.066;2023-04-06T09:20:57;9.77;;;5.00;;
56075;SDS011;41951;49.022;12.066;2023-04-06T09:23:27;10.68;;;5.00;;
56075;SDS011;41951;49.022;12.066;2023-04-06T09:26:04;10.25;;;4.68;;
56075;SDS011;41951;49.022;12.066;2023-04-06T09:28:50;7.78;;;4.82;;
56075;SDS011;41951;49.022;12.066;2023-04-06T09:31:21;8.73;;;4.72;;
56075;SDS011;41951;49.022;12.066;2023-04-06T09:33:48;6.88;;;4.43;;
56075;SDS011;41951;49.022;12.066;2023-04-06T09:36:14;8.95;;;4.32;;
56075;SDS011;41951;49.022;12.066;2023-04-06T09:41:25;9.38;;;4.97;;
56075;SDS011;41951;49.022;12.066;2023-04-06T09:43:52;7.28;;;4.22;;
56075;SDS011;41951;49.022;12.066;2023-04-06T09:46:40;7.55;;;4.30;;
56075;SDS011;41951;49.022;12.066;2023-04-06T09:49:07;8.18;;;4.53;;
56075;SDS011;41951;49.022;12.066;2023-04-06T09:51:37;8.88;;;4.55;;
56075;SDS011;41951;49.022;12.066;2023-04-06T09:54:03;7.68;;;4.45;;
56075;SDS011;41951;49.022;12.066;2023-04-06T09:57:13;10.55;;;4.55;;
56075;SDS011;41951;49.022;12.066;2023-04-06T10:07:45;7.95;;;4.32;;
56075;SDS011;41951;49.022;12.066;2023-04-06T10:10:14;7.45;;;4.30;;
56075;SDS011;41951;49.022;12.066;2023-04-06T10:12:40;7.50;;;4.60;;
56075;SDS011;41951;49.022;12.066;2023-04-06T10:15:07;8.30;;;5.28;;
56075;SDS011;41951;49.022;12.066;2023-04-06T10:17:33;9.43;;;5.28;;
56075;SDS011;41951;49.022;12.066;2023-04-06T10:20:00;9.32;;;5.40;;
56075;SDS011;41951;49.022;12.066;2023-04-06T10:22:39;7.65;;;4.65;;
56075;SDS011;41951;49.022;12.066;2023-04-06T10:25:09;6.88;;;4.78;;
56075;SDS011;41951;49.022;12.066;2023-04-06T10:27:35;6.85;;;4.40;;
56075;SDS011;41951;49.022;12.066;2023-04-06T10:30:02;8.80;;;4.97;;
56075;SDS011;41951;49.022;12.066;2023-04-06T10:32:33;9.85;;;5.05;;
56075;SDS011;41951;49.022;12.066;2023-04-06T10:35:10;8.05;;;5.22;;
56075;SDS011;41951;49.022;12.066;2023-04-06T10:37:51;8.38;;;4.80;;
56075;SDS011;41951;49.022;12.066;2023-04-06T10:40:19;6.72;;;4.93;;
56075;SDS011;41951;49.022;12.066;2023-04-06T10:42:46;8.43;;;4.75;;
56075;SDS011;41951;49.022;12.066;2023-04-06T10:45:19;6.63;;;4.38;;
56075;SDS011;41951;49.022;12.066;2023-04-06T10:47:54;7.22;;;4.53;;
56075;SDS011;41951;49.022;12.066;2023-04-06T10:50:21;7.10;;;4.68;;
56075;SDS011;41951;49.022;12.066;2023-04-06T10:52:47;9.15;;;4.60;;
56075;SDS011;41951;49.022;12.066;2023-04-06T10:55:27;8.83;;;5.30;;
56075;SDS011;41951;49.022;12.066;2023-04-06T10:57:53;7.38;;;4.88;;
56075;SDS011;41951;49.022;12.066;2023-04-06T11:00:19;9.38;;;4.90;;
56075;SDS011;41951;49.022;12.066;2023-04-06T11:02:45;9.70;;;4.82;;
56075;SDS011;41951;49.022;12.066;2023-04-06T11:05:11;6.78;;;4.90;;
56075;SDS011;41951;49.022;12.066;2023-04-06T11:07:40;9.48;;;5.28;;
56075;SDS011;41951;49.022;12.066;2023-04-06T11:10:07;9.98;;;4.85;;
56075;SDS011;41951;49.022;12.066;2023-04-06T11:12:33;8.40;;;5.13;;
56075;SDS011;41951;49.022;12.066;2023-04-06T11:15:00;7.50;;;4.97;;
56075;SDS011;41951;49.022;12.066;2023-04-06T11:17:34;9.30;;;5.07;;
56075;SDS011;41951;49.022;12.066;2023-04-06T11:20:01;10.00;;;4.97;;
56075;SDS011;41951;49.022;12.066;2023-04-06T11:22:28;9.13;;;5.22;;
56075;SDS011;41951;49.022;12.066;2023-04-06T11:25:05;11.45;;;5.35;;
56075;SDS011;41951;49.022;12.066;2023-04-06T11:27:33;8.05;;;4.97;;
56075;SDS011;41951;49.022;12.066;2023-04-06T11:30:00;8.25;;;5.18;;
56075;SDS011;41951;49.022;12.066;2023-04-06T11:32:27;6.63;;;4.65;;
56075;SDS011;41951;49.022;12.066;2023-04-06T11:34:52;8.00;;;5.25;;
56075;SDS011;41951;49.022;12.066;2023-04-06T11:37:18;9.27;;;5.10;;
56075;SDS011;41951;49.022;12.066;2023-04-06T11:39:51;10.82;;;5.22;;
56075;SDS011;41951;49.022;12.066;2023-04-06T11:42:23;9.93;;;5.80;;
56075;SDS011;41951;49.022;12.066;2023-04-06T11:47:17;9.88;;;5.55;;
56075;SDS011;41951;49.022;12.066;2023-04-06T11:49:43;7.97;;;5.28;;
56075;SDS011;41951;49.022;12.066;2023-04-06T11:52:16;9.57;;;5.30;;
56075;SDS011;41951;49.022;12.066;2023-04-06T11:54:43;7.78;;;5.88;;
56075;SDS011;41951;49.022;12.066;2023-04-06T11:57:08;8.32;;;5.35;;
56075;SDS011;41951;49.022;12.066;2023-04-06T11:59:34;10.30;;;5.45;;
56075;SDS011;41951;49.022;12.066;2023-04-06T12:02:03;8.70;;;5.47;;
56075;SDS011;41951;49.022;12.066;2023-04-06T12:04:30;9.50;;;5.78;;
56075;SDS011;41951;49.022;12.066;2023-04-06T12:06:56;10.50;;;5.22;;
56075;SDS011;41951;49.022;12.066;2023-04-06T12:09:22;8.07;;;5.22;;
56075;SDS011;41951;49.022;12.066;2023-04-06T12:11:48;8.90;;;5.50;;
56075;SDS011;41951;49.022;12.066;2023-04-06T12:14:13;6.97;;;5.28;;
56075;SDS011;41951;49.022;12.066;2023-04-06T12:16:39;8.23;;;5.00;;
56075;SDS011;41951;49.022;12.066;2023-04-06T12:19:05;10.07;;;5.13;;
56075;SDS011;41951;49.022;12.066;2023-04-06T12:21:31;7.22;;;5.13;;
56075;SDS011;41951;49.022;12.066;2023-04-06T12:23:58;7.75;;;4.97;;
56075;SDS011;41951;49.022;12.066;2023-04-06T12:26:24;8.30;;;5.22;;
56075;SDS011;41951;49.022;12.066;2023-04-06T12:28:50;7.35;;;4.90;;
56075;SDS011;41951;49.022;12.066;2023-04-06T12:31:16;8.57;;;5.05;;
56075;SDS011;41951;49.022;12.066;2023-04-06T12:33:42;10.40;;;5.80;;
56075;SDS011;41951;49.022;12.066;2023-04-06T12:36:13;9.57;;;5.65;;
56075;SDS011;41951;49.022;12.066;2023-04-06T12:38:40;9.07;;;6.03;;
56075;SDS011;41951;49.022;12.066;2023-04-06T12:41:06;8.00;;;5.43;;
56075;SDS011;41951;49.022;12.066;2023-04-06T12:43:32;7.43;;;5.05;;
56075;SDS011;41951;49.022;12.066;2023-04-06T12:45:58;8.40;;;5.13;;
56075;SDS011;41951;49.022;12.066;2023-04-06T12:48:24;7.30;;;4.97;;
56075;SDS011;41951;49.022;12.066;2023-04-06T12:51:03;8.60;;;5.38;;
56075;SDS011;41951;49.022;12.066;2023-04-06T12:53:30;8.20;;;5.45;;
56075;SDS011;41951;49.022;12.066;2023-04-06T12:55:56;7.05;;;4.65;;
56075;SDS011;41951;49.022;12.066;2023-04-06T12:58:23;8.95;;;5.65;;
56075;SDS011;41951;49.022;12.066;2023-04-06T13:00:51;7.00;;;5.00;;
56075;SDS011;41951;49.022;12.066;2023-04-06T13:03:18;7.75;;;5.30;;
56075;SDS011;41951;49.022;12.066;2023-04-06T13:05:44;7.47;;;4.53;;
56075;SDS011;41951;49.022;12.066;2023-04-06T13:08:11;7.90;;;5.18;;
56075;SDS011;41951;49.022;12.066;2023-04-06T13:10:37;7.88;;;5.03;;
56075;SDS011;41951;49.022;12.066;2023-04-06T13:13:03;7.57;;;5.10;;
56075;SDS011;41951;49.022;12.066;2023-04-06T13:15:29;7.80;;;5.22;;
56075;SDS011;41951;49.022;12.066;2023-04-06T13:17:54;8.48;;;5.45;;
56075;SDS011;41951;49.022;12.066;2023-04-06T13:20:20;7.25;;;4.65;;
56075;SDS011;41951;49.022;12.066;2023-04-06T13:22:45;8.38;;;5.35;;
56075;SDS011;41951;49.022;12.066;2023-04-06T13:25:11;8.80;;;4.80;;
56075;SDS011;41951;49.022;12.066;2023-04-06T13:27:37;8.10;;;5.57;;
56075;SDS011;41951;49.022;12.066;2023-04-06T13:30:04;8.77;;;4.80;;
56075;SDS011;41951;49.022;12.066;2023-04-06T13:32:30;7.22;;;4.78;;
56075;SDS011;41951;49.022;12.066;2023-04-06T13:34:56;9.25;;;4.75;;
56075;SDS011;41951;49.022;12.066;2023-04-06T13:37:22;6.55;;;4.53;;
56075;SDS011;41951;49.022;12.066;2023-04-06T13:39:48;6.82;;;4.53;;
56075;SDS011;41951;49.022;12.066;2023-04-06T13:42:13;8.05;;;4.97;;
56075;SDS011;41951;49.022;12.066;2023-04-06T13:44:39;8.23;;;5.15;;
56075;SDS011;41951;49.022;12.066;2023-04-06T13:47:05;7.00;;;5.28;;
56075;SDS011;41951;49.022;12.066;2023-04-06T13:49:31;6.65;;;5.22;;
56075;SDS011;41951;49.022;12.066;2023-04-06T13:51:57;7.43;;;5.22;;
56075;SDS011;41951;49.022;12.066;2023-04-06T13:54:23;7.93;;;5.10;;
56075;SDS011;41951;49.022;12.066;2023-04-06T13:56:48;8.50;;;5.55;;
56075;SDS011;41951;49.022;12.066;2023-04-06T13:59:14;6.93;;;4.95;;
56075;SDS011;41951;49.022;12.066;2023-04-06T14:01:40;7.53;;;5.38;;
56075;SDS011;41951;49.022;12.066;2023-04-06T14:04:05;8.90;;;5.22;;
56075;SDS011;41951;49.022;12.066;2023-04-06T14:06:31;13.48;;;5.18;;
56075;SDS011;41951;49.022;12.066;2023-04-06T14:08:57;7.00;;;4.82;;
56075;SDS011;41951;49.022;12.066;2023-04-06T14:11:23;8.70;;;5.88;;
56075;SDS011;41951;49.022;12.066;2023-04-06T14:13:48;6.78;;;5.13;;
56075;SDS011;41951;49.022;12.066;2023-04-06T14:16:14;6.88;;;4.88;;
56075;SDS011;41951;49.022;12.066;2023-04-06T14:18:40;13.18;;;5.25;;
56075;SDS011;41951;49.022;12.066;2023-04-06T14:21:05;6.40;;;4.43;;
56075;SDS011;41951;49.022;12.066;2023-04-06T14:23:31;7.93;;;5.10;;
56075;SDS011;41951;49.022;12.066;2023-04-06T14:26:03;7.65;;;5.38;;
56075;SDS011;41951;49.022;12.066;2023-04-06T14:28:31;9.38;;;5.35;;
56075;SDS011;41951;49.022;12.066;2023-04-06T14:30:58;6.50;;;4.40;;
56075;SDS011;41951;49.022;12.066;2023-04-06T14:33:25;9.25;;;5.25;;
56075;SDS011;41951;49.022;12.066;2023-04-06T14:35:51;8.10;;;5.13;;
56075;SDS011;41951;49.022;12.066;2023-04-06T14:38:17;8.38;;;5.45;;
56075;SDS011;41951;49.022;12.066;2023-04-06T14:40:42;9.23;;;4.90;;
56075;SDS011;41951;49.022;12.066;2023-04-06T14:43:08;7.72;;;4.90;;